CheckWX is a tool to help pilots better visualize weather data.  It is not intended as a substitute for an official pre-flight weather briefing.

19:39:04 UTC

KTZR METAR
Bolton Field Airport
Columbus, Ohio, USA
Current

49 mins ago

KTZR 201850Z 23018G23KT 10SM SCT023 SCT031 BKN055 24/19 A2958
Observed
Jun-20 @ 18:50 UTC
Wind
  • 230° at 18 KTS
  • Gusting to 23 KTS
Visibility
10 SM
Flight Rules
VFR
Cloud Levels
  • Scattered at 2,300' AGL
  • Scattered at 3,100' AGL
  • Broken at 5,500' AGL
Temperature
24°C / 75°F
Dewpoint
19°C / 66°F
Humidity
74%
Altimeter
29.58" Hg
Pressure
1001.72 hPa
Previous

2 hours ago

KTZR 201750Z 21016G21KT 10SM BKN017 OVC024 23/20 A2960
Observed
Jun-20 @ 17:50 UTC
Wind
  • 210° at 16 KTS
  • Gusting to 21 KTS
Visibility
10 SM
Flight Rules
MVFR
Cloud Levels
  • Broken at 1,700' AGL
  • Overcast at 2,400' AGL
Temperature
23°C / 73°F
Dewpoint
20°C / 68°F
Humidity
83%
Altimeter
29.6" Hg
Pressure
1002.42 hPa
Previous

3 hours ago

KTZR 201650Z 21015KT 10SM BKN016 BKN021 OVC029 23/20 A2961
Observed
Jun-20 @ 16:50 UTC
Wind
  • 210° at 15 KTS
Visibility
10 SM
Flight Rules
MVFR
Cloud Levels
  • Broken at 1,600' AGL
  • Broken at 2,100' AGL
  • Overcast at 2,900' AGL
Temperature
23°C / 73°F
Dewpoint
20°C / 68°F
Humidity
83%
Altimeter
29.61" Hg
Pressure
1002.72 hPa